sensor_id;sensor_type;location;lat;lon;timestamp;P1;durP1;ratioP1;P2;durP2;ratioP2
60038;SDS011;45916;52.734;6.544;2023-10-19T00:00:39;45.92;;;34.20;;
60038;SDS011;45916;52.734;6.544;2023-10-19T00:03:06;46.72;;;35.05;;
60038;SDS011;45916;52.734;6.544;2023-10-19T00:05:32;46.92;;;34.95;;
60038;SDS011;45916;52.734;6.544;2023-10-19T00:07:59;52.17;;;37.70;;
60038;SDS011;45916;52.734;6.544;2023-10-19T00:10:30;48.17;;;36.65;;
60038;SDS011;45916;52.734;6.544;2023-10-19T00:13:00;52.03;;;39.28;;
60038;SDS011;45916;52.734;6.544;2023-10-19T00:15:33;50.97;;;38.33;;
60038;SDS011;45916;52.734;6.544;2023-10-19T00:18:05;52.95;;;38.58;;
60038;SDS011;45916;52.734;6.544;2023-10-19T00:20:44;51.28;;;39.30;;
60038;SDS011;45916;52.734;6.544;2023-10-19T00:23:10;56.00;;;40.25;;
60038;SDS011;45916;52.734;6.544;2023-10-19T00:25:46;52.45;;;39.20;;
60038;SDS011;45916;52.734;6.544;2023-10-19T00:28:19;54.10;;;40.15;;
60038;SDS011;45916;52.734;6.544;2023-10-19T00:30:47;57.85;;;40.70;;
60038;SDS011;45916;52.734;6.544;2023-10-19T00:33:15;55.58;;;41.65;;
60038;SDS011;45916;52.734;6.544;2023-10-19T00:35:49;50.90;;;40.78;;
60038;SDS011;45916;52.734;6.544;2023-10-19T00:38:41;56.28;;;42.38;;
60038;SDS011;45916;52.734;6.544;2023-10-19T00:41:13;60.42;;;40.10;;
60038;SDS011;45916;52.734;6.544;2023-10-19T00:43:45;61.65;;;44.25;;
60038;SDS011;45916;52.734;6.544;2023-10-19T00:48:59;62.60;;;42.95;;
60038;SDS011;45916;52.734;6.544;2023-10-19T00:51:27;61.17;;;46.95;;
60038;SDS011;45916;52.734;6.544;2023-10-19T00:53:56;64.00;;;45.63;;
60038;SDS011;45916;52.734;6.544;2023-10-19T00:56:33;68.30;;;50.55;;
60038;SDS011;45916;52.734;6.544;2023-10-19T00:59:06;63.67;;;46.85;;
60038;SDS011;45916;52.734;6.544;2023-10-19T01:01:39;68.22;;;48.47;;
60038;SDS011;45916;52.734;6.544;2023-10-19T01:04:15;66.32;;;47.47;;
60038;SDS011;45916;52.734;6.544;2023-10-19T01:06:47;66.45;;;47.97;;
60038;SDS011;45916;52.734;6.544;2023-10-19T01:09:58;73.40;;;52.05;;
60038;SDS011;45916;52.734;6.544;2023-10-19T01:12:29;71.97;;;52.92;;
60038;SDS011;45916;52.734;6.544;2023-10-19T01:17:33;72.88;;;50.17;;
60038;SDS011;45916;52.734;6.544;2023-10-19T01:20:09;71.30;;;49.45;;
60038;SDS011;45916;52.734;6.544;2023-10-19T01:22:47;72.57;;;50.33;;
60038;SDS011;45916;52.734;6.544;2023-10-19T01:25:15;66.47;;;49.72;;
60038;SDS011;45916;52.734;6.544;2023-10-19T01:27:41;61.85;;;46.67;;
60038;SDS011;45916;52.734;6.544;2023-10-19T01:30:07;75.35;;;51.70;;
60038;SDS011;45916;52.734;6.544;2023-10-19T01:32:35;81.18;;;52.95;;
60038;SDS011;45916;52.734;6.544;2023-10-19T01:35:00;77.43;;;52.97;;
60038;SDS011;45916;52.734;6.544;2023-10-19T01:37:26;73.88;;;52.22;;
60038;SDS011;45916;52.734;6.544;2023-10-19T01:39:52;79.43;;;53.78;;
60038;SDS011;45916;52.734;6.544;2023-10-19T01:42:18;70.93;;;51.80;;
60038;SDS011;45916;52.734;6.544;2023-10-19T01:44:44;76.20;;;51.33;;
60038;SDS011;45916;52.734;6.544;2023-10-19T01:47:09;68.60;;;48.55;;
60038;SDS011;45916;52.734;6.544;2023-10-19T01:49:35;74.25;;;50.88;;
60038;SDS011;45916;52.734;6.544;2023-10-19T01:52:02;62.72;;;45.30;;
60038;SDS011;45916;52.734;6.544;2023-10-19T01:54:29;67.75;;;47.72;;
60038;SDS011;45916;52.734;6.544;2023-10-19T01:56:55;72.00;;;49.33;;
60038;SDS011;45916;52.734;6.544;2023-10-19T01:59:24;71.03;;;49.20;;
60038;SDS011;45916;52.734;6.544;2023-10-19T02:01:55;75.65;;;51.53;;
60038;SDS011;45916;52.734;6.544;2023-10-19T02:04:22;65.80;;;47.95;;
60038;SDS011;45916;52.734;6.544;2023-10-19T02:06:48;78.10;;;49.45;;
60038;SDS011;45916;52.734;6.544;2023-10-19T02:09:18;70.05;;;49.85;;
60038;SDS011;45916;52.734;6.544;2023-10-19T02:11:48;73.25;;;48.50;;
60038;SDS011;45916;52.734;6.544;2023-10-19T02:14:16;68.45;;;47.90;;
60038;SDS011;45916;52.734;6.544;2023-10-19T02:16:44;67.70;;;48.17;;
60038;SDS011;45916;52.734;6.544;2023-10-19T02:19:21;64.30;;;47.15;;
60038;SDS011;45916;52.734;6.544;2023-10-19T02:21:54;67.47;;;46.10;;
60038;SDS011;45916;52.734;6.544;2023-10-19T02:24:25;60.58;;;43.88;;
60038;SDS011;45916;52.734;6.544;2023-10-19T02:26:51;65.97;;;46.17;;
60038;SDS011;45916;52.734;6.544;2023-10-19T02:29:18;64.88;;;44.70;;
60038;SDS011;45916;52.734;6.544;2023-10-19T02:31:44;61.10;;;43.22;;
60038;SDS011;45916;52.734;6.544;2023-10-19T02:34:12;68.32;;;46.88;;
60038;SDS011;45916;52.734;6.544;2023-10-19T02:36:40;69.90;;;46.10;;
60038;SDS011;45916;52.734;6.544;2023-10-19T02:39:11;77.13;;;50.08;;
60038;SDS011;45916;52.734;6.544;2023-10-19T02:41:43;64.38;;;45.33;;
60038;SDS011;45916;52.734;6.544;2023-10-19T02:44:10;80.72;;;51.53;;
60038;SDS011;45916;52.734;6.544;2023-10-19T02:46:53;67.30;;;46.58;;
60038;SDS011;45916;52.734;6.544;2023-10-19T02:49:33;69.70;;;47.70;;
60038;SDS011;45916;52.734;6.544;2023-10-19T02:52:04;63.55;;;44.78;;
60038;SDS011;45916;52.734;6.544;2023-10-19T02:54:30;72.13;;;49.85;;
60038;SDS011;45916;52.734;6.544;2023-10-19T02:56:58;81.28;;;50.65;;
60038;SDS011;45916;52.734;6.544;2023-10-19T02:59:25;71.32;;;49.38;;
60038;SDS011;45916;52.734;6.544;2023-10-19T03:01:54;68.57;;;46.72;;
60038;SDS011;45916;52.734;6.544;2023-10-19T03:04:53;69.07;;;47.90;;
60038;SDS011;45916;52.734;6.544;2023-10-19T03:07:20;69.05;;;46.30;;
60038;SDS011;45916;52.734;6.544;2023-10-19T03:09:45;68.22;;;47.08;;
60038;SDS011;45916;52.734;6.544;2023-10-19T03:12:14;64.88;;;47.33;;
60038;SDS011;45916;52.734;6.544;2023-10-19T03:14:40;65.15;;;46.28;;
60038;SDS011;45916;52.734;6.544;2023-10-19T03:17:11;76.97;;;48.58;;
60038;SDS011;45916;52.734;6.544;2023-10-19T03:19:38;76.05;;;48.22;;
60038;SDS011;45916;52.734;6.544;2023-10-19T03:22:03;69.28;;;47.75;;
60038;SDS011;45916;52.734;6.544;2023-10-19T03:24:31;74.50;;;49.78;;
60038;SDS011;45916;52.734;6.544;2023-10-19T03:27:06;79.60;;;51.15;;
60038;SDS011;45916;52.734;6.544;2023-10-19T03:29:46;82.05;;;51.92;;
60038;SDS011;45916;52.734;6.544;2023-10-19T03:32:25;85.13;;;54.47;;
60038;SDS011;45916;52.734;6.544;2023-10-19T03:34:57;87.78;;;55.17;;
60038;SDS011;45916;52.734;6.544;2023-10-19T03:37:25;89.35;;;56.22;;
60038;SDS011;45916;52.734;6.544;2023-10-19T03:39:54;99.45;;;59.53;;
60038;SDS011;45916;52.734;6.544;2023-10-19T03:42:24;96.45;;;58.50;;
60038;SDS011;45916;52.734;6.544;2023-10-19T03:45:05;90.63;;;58.13;;
60038;SDS011;45916;52.734;6.544;2023-10-19T03:47:38;119.40;;;67.40;;
60038;SDS011;45916;52.734;6.544;2023-10-19T03:50:05;94.63;;;58.97;;
60038;SDS011;45916;52.734;6.544;2023-10-19T03:52:32;93.60;;;60.63;;
60038;SDS011;45916;52.734;6.544;2023-10-19T03:55:02;92.95;;;60.25;;
60038;SDS011;45916;52.734;6.544;2023-10-19T03:57:36;92.88;;;58.42;;
60038;SDS011;45916;52.734;6.544;2023-10-19T04:00:22;101.38;;;59.97;;
60038;SDS011;45916;52.734;6.544;2023-10-19T04:02:53;89.93;;;57.90;;
60038;SDS011;45916;52.734;6.544;2023-10-19T04:05:20;109.82;;;66.05;;
60038;SDS011;45916;52.734;6.544;2023-10-19T04:07:51;97.80;;;60.60;;
60038;SDS011;45916;52.734;6.544;2023-10-19T04:10:20;105.88;;;62.33;;
60038;SDS011;45916;52.734;6.544;2023-10-19T04:13:03;98.65;;;60.45;;
60038;SDS011;45916;52.734;6.544;2023-10-19T04:15:34;98.45;;;60.88;;
60038;SDS011;45916;52.734;6.544;2023-10-19T04:18:01;106.07;;;64.53;;
60038;SDS011;45916;52.734;6.544;2023-10-19T04:20:33;101.10;;;59.25;;
60038;SDS011;45916;52.734;6.544;2023-10-19T04:23:17;101.75;;;62.08;;
60038;SDS011;45916;52.734;6.544;2023-10-19T04:25:45;89.90;;;55.75;;
60038;SDS011;45916;52.734;6.544;2023-10-19T04:28:11;91.10;;;55.10;;
60038;SDS011;45916;52.734;6.544;2023-10-19T04:30:40;95.15;;;59.85;;
60038;SDS011;45916;52.734;6.544;2023-10-19T04:33:06;90.65;;;56.75;;
60038;SDS011;45916;52.734;6.544;2023-10-19T04:35:35;81.47;;;51.95;;
60038;SDS011;45916;52.734;6.544;2023-10-19T04:38:03;85.50;;;55.17;;
60038;SDS011;45916;52.734;6.544;2023-10-19T04:40:31;79.20;;;51.67;;
60038;SDS011;45916;52.734;6.544;2023-10-19T04:42:57;82.30;;;52.83;;
60038;SDS011;45916;52.734;6.544;2023-10-19T04:45:23;89.18;;;55.45;;
60038;SDS011;45916;52.734;6.544;2023-10-19T04:47:52;104.18;;;61.67;;
60038;SDS011;45916;52.734;6.544;2023-10-19T04:50:19;99.93;;;57.38;;
60038;SDS011;45916;52.734;6.544;2023-10-19T04:52:45;86.47;;;54.17;;
60038;SDS011;45916;52.734;6.544;2023-10-19T04:55:11;88.10;;;53.53;;
60038;SDS011;45916;52.734;6.544;2023-10-19T04:57:36;87.05;;;54.08;;
60038;SDS011;45916;52.734;6.544;2023-10-19T05:00:02;84.30;;;50.53;;
60038;SDS011;45916;52.734;6.544;2023-10-19T05:02:31;94.68;;;56.53;;
60038;SDS011;45916;52.734;6.544;2023-10-19T05:04:56;85.43;;;52.40;;
60038;SDS011;45916;52.734;6.544;2023-10-19T05:07:22;71.80;;;47.78;;
60038;SDS011;45916;52.734;6.544;2023-10-19T05:09:48;74.13;;;49.17;;
60038;SDS011;45916;52.734;6.544;2023-10-19T05:12:14;69.80;;;47.67;;
60038;SDS011;45916;52.734;6.544;2023-10-19T05:14:40;70.43;;;46.72;;
60038;SDS011;45916;52.734;6.544;2023-10-19T05:17:09;84.25;;;49.60;;
60038;SDS011;45916;52.734;6.544;2023-10-19T05:19:36;85.22;;;52.60;;
60038;SDS011;45916;52.734;6.544;2023-10-19T05:22:05;83.20;;;51.83;;
60038;SDS011;45916;52.734;6.544;2023-10-19T05:24:31;76.68;;;50.22;;
60038;SDS011;45916;52.734;6.544;2023-10-19T05:26:57;81.05;;;48.92;;
60038;SDS011;45916;52.734;6.544;2023-10-19T05:29:23;68.63;;;46.55;;
60038;SDS011;45916;52.734;6.544;2023-10-19T05:31:50;71.75;;;47.35;;
60038;SDS011;45916;52.734;6.544;2023-10-19T05:34:22;83.70;;;52.00;;
60038;SDS011;45916;52.734;6.544;2023-10-19T05:36:49;68.82;;;45.97;;
60038;SDS011;45916;52.734;6.544;2023-10-19T05:39:15;73.55;;;48.25;;
60038;SDS011;45916;52.734;6.544;2023-10-19T05:41:41;72.32;;;47.50;;
60038;SDS011;45916;52.734;6.544;2023-10-19T05:44:07;96.60;;;52.97;;
60038;SDS011;45916;52.734;6.544;2023-10-19T05:46:33;91.10;;;52.45;;
60038;SDS011;45916;52.734;6.544;2023-10-19T05:48:59;67.47;;;46.42;;
60038;SDS011;45916;52.734;6.544;2023-10-19T05:51:28;70.55;;;46.80;;
60038;SDS011;45916;52.734;6.544;2023-10-19T05:53:58;71.43;;;48.50;;
60038;SDS011;45916;52.734;6.544;2023-10-19T05:58:52;86.10;;;53.00;;
60038;SDS011;45916;52.734;6.544;2023-10-19T06:01:19;78.93;;;51.17;;
60038;SDS011;45916;52.734;6.544;2023-10-19T06:03:47;71.82;;;50.03;;
60038;SDS011;45916;52.734;6.544;2023-10-19T06:06:12;77.38;;;52.92;;
60038;SDS011;45916;52.734;6.544;2023-10-19T06:08:39;77.47;;;51.47;;
60038;SDS011;45916;52.734;6.544;2023-10-19T06:11:05;73.95;;;51.83;;
60038;SDS011;45916;52.734;6.544;2023-10-19T06:13:32;88.60;;;54.13;;
60038;SDS011;45916;52.734;6.544;2023-10-19T06:15:58;77.10;;;50.28;;
60038;SDS011;45916;52.734;6.544;2023-10-19T06:18:23;84.28;;;53.03;;
60038;SDS011;45916;52.734;6.544;2023-10-19T06:20:49;78.57;;;51.42;;
60038;SDS011;45916;52.734;6.544;2023-10-19T06:23:16;77.65;;;50.75;;
60038;SDS011;45916;52.734;6.544;2023-10-19T06:25:43;82.25;;;53.13;;
60038;SDS011;45916;52.734;6.544;2023-10-19T06:28:09;79.75;;;53.58;;
60038;SDS011;45916;52.734;6.544;2023-10-19T06:30:36;84.90;;;52.75;;
60038;SDS011;45916;52.734;6.544;2023-10-19T06:33:02;77.22;;;50.35;;
60038;SDS011;45916;52.734;6.544;2023-10-19T06:35:31;97.95;;;56.72;;
60038;SDS011;45916;52.734;6.544;2023-10-19T06:37:58;88.95;;;56.58;;
60038;SDS011;45916;52.734;6.544;2023-10-19T06:40:25;95.22;;;58.80;;
60038;SDS011;45916;52.734;6.544;2023-10-19T06:42:57;87.80;;;54.30;;
60038;SDS011;45916;52.734;6.544;2023-10-19T06:45:24;90.68;;;55.55;;
60038;SDS011;45916;52.734;6.544;2023-10-19T06:47:55;100.18;;;57.67;;
60038;SDS011;45916;52.734;6.544;2023-10-19T06:50:22;100.00;;;57.10;;
60038;SDS011;45916;52.734;6.544;2023-10-19T06:52:49;105.22;;;58.13;;
60038;SDS011;45916;52.734;6.544;2023-10-19T06:55:16;83.57;;;53.65;;
60038;SDS011;45916;52.734;6.544;2023-10-19T06:57:45;108.82;;;60.40;;
60038;SDS011;45916;52.734;6.544;2023-10-19T07:00:15;96.25;;;56.00;;
60038;SDS011;45916;52.734;6.544;2023-10-19T07:02:51;95.30;;;56.85;;
60038;SDS011;45916;52.734;6.544;2023-10-19T07:05:20;101.30;;;59.55;;
60038;SDS011;45916;52.734;6.544;2023-10-19T07:07:47;96.47;;;57.10;;
60038;SDS011;45916;52.734;6.544;2023-10-19T07:10:15;99.03;;;56.92;;
60038;SDS011;45916;52.734;6.544;2023-10-19T07:12:43;101.72;;;59.83;;
60038;SDS011;45916;52.734;6.544;2023-10-19T07:15:10;102.82;;;59.90;;
60038;SDS011;45916;52.734;6.544;2023-10-19T07:17:42;94.63;;;55.78;;
60038;SDS011;45916;52.734;6.544;2023-10-19T07:20:09;106.40;;;59.55;;
60038;SDS011;45916;52.734;6.544;2023-10-19T07:23:01;111.28;;;60.75;;
60038;SDS011;45916;52.734;6.544;2023-10-19T07:25:35;117.75;;;64.13;;
60038;SDS011;45916;52.734;6.544;2023-10-19T07:28:11;108.55;;;62.33;;
60038;SDS011;45916;52.734;6.544;2023-10-19T07:30:38;112.25;;;61.35;;
60038;SDS011;45916;52.734;6.544;2023-10-19T07:33:05;114.47;;;64.88;;
60038;SDS011;45916;52.734;6.544;2023-10-19T07:35:34;118.95;;;64.45;;
60038;SDS011;45916;52.734;6.544;2023-10-19T07:38:02;100.65;;;58.92;;
60038;SDS011;45916;52.734;6.544;2023-10-19T07:40:29;119.70;;;65.05;;
60038;SDS011;45916;52.734;6.544;2023-10-19T07:42:55;117.43;;;65.15;;
60038;SDS011;45916;52.734;6.544;2023-10-19T07:45:21;116.85;;;65.40;;
60038;SDS011;45916;52.734;6.544;2023-10-19T07:47:47;116.72;;;64.97;;
60038;SDS011;45916;52.734;6.544;2023-10-19T07:50:13;109.97;;;64.38;;
60038;SDS011;45916;52.734;6.544;2023-10-19T07:55:09;111.70;;;64.28;;
60038;SDS011;45916;52.734;6.544;2023-10-19T07:57:35;116.97;;;65.00;;
60038;SDS011;45916;52.734;6.544;2023-10-19T08:00:01;104.60;;;62.92;;
60038;SDS011;45916;52.734;6.544;2023-10-19T08:02:28;108.15;;;63.95;;
60038;SDS011;45916;52.734;6.544;2023-10-19T08:04:55;117.63;;;66.68;;
60038;SDS011;45916;52.734;6.544;2023-10-19T08:07:21;112.30;;;66.05;;
60038;SDS011;45916;52.734;6.544;2023-10-19T08:09:47;111.93;;;62.30;;
60038;SDS011;45916;52.734;6.544;2023-10-19T08:12:13;116.28;;;65.60;;
60038;SDS011;45916;52.734;6.544;2023-10-19T08:14:39;116.57;;;65.35;;
60038;SDS011;45916;52.734;6.544;2023-10-19T08:17:05;116.30;;;66.13;;
60038;SDS011;45916;52.734;6.544;2023-10-19T08:19:34;123.53;;;66.65;;
60038;SDS011;45916;52.734;6.544;2023-10-19T08:22:00;105.07;;;64.32;;
60038;SDS011;45916;52.734;6.544;2023-10-19T08:24:27;114.25;;;66.15;;
60038;SDS011;45916;52.734;6.544;2023-10-19T08:26:55;112.88;;;65.55;;
60038;SDS011;45916;52.734;6.544;2023-10-19T08:29:21;118.38;;;67.50;;
60038;SDS011;45916;52.734;6.544;2023-10-19T08:31:49;117.47;;;66.68;;
60038;SDS011;45916;52.734;6.544;2023-10-19T08:34:15;120.97;;;67.63;;
60038;SDS011;45916;52.734;6.544;2023-10-19T08:36:40;120.07;;;69.65;;
60038;SDS011;45916;52.734;6.544;2023-10-19T08:39:10;105.95;;;63.08;;
60038;SDS011;45916;52.734;6.544;2023-10-19T08:41:39;111.03;;;64.63;;
60038;SDS011;45916;52.734;6.544;2023-10-19T08:44:06;118.22;;;68.40;;
60038;SDS011;45916;52.734;6.544;2023-10-19T08:46:41;118.88;;;66.53;;
60038;SDS011;45916;52.734;6.544;2023-10-19T08:49:13;102.72;;;62.42;;
60038;SDS011;45916;52.734;6.544;2023-10-19T08:51:40;104.47;;;61.35;;
60038;SDS011;45916;52.734;6.544;2023-10-19T08:54:09;106.60;;;62.38;;
60038;SDS011;45916;52.734;6.544;2023-10-19T08:56:39;104.10;;;62.17;;
60038;SDS011;45916;52.734;6.544;2023-10-19T08:59:06;106.00;;;64.00;;
60038;SDS011;45916;52.734;6.544;2023-10-19T09:01:36;100.88;;;60.53;;
60038;SDS011;45916;52.734;6.544;2023-10-19T09:04:02;108.68;;;62.90;;
60038;SDS011;45916;52.734;6.544;2023-10-19T09:06:35;116.85;;;65.28;;
60038;SDS011;45916;52.734;6.544;2023-10-19T09:09:10;107.85;;;62.88;;
60038;SDS011;45916;52.734;6.544;2023-10-19T09:11:42;109.63;;;65.00;;
60038;SDS011;45916;52.734;6.544;2023-10-19T09:14:14;109.97;;;63.92;;
60038;SDS011;45916;52.734;6.544;2023-10-19T09:16:55;116.90;;;65.60;;
60038;SDS011;45916;52.734;6.544;2023-10-19T09:22:08;100.38;;;62.55;;
60038;SDS011;45916;52.734;6.544;2023-10-19T09:24:47;100.15;;;62.45;;
60038;SDS011;45916;52.734;6.544;2023-10-19T09:27:18;111.85;;;62.03;;
60038;SDS011;45916;52.734;6.544;2023-10-19T09:29:44;90.60;;;57.90;;
60038;SDS011;45916;52.734;6.544;2023-10-19T09:32:10;101.05;;;60.88;;
60038;SDS011;45916;52.734;6.544;2023-10-19T09:34:39;96.10;;;60.10;;
60038;SDS011;45916;52.734;6.544;2023-10-19T09:37:09;91.68;;;59.33;;
60038;SDS011;45916;52.734;6.544;2023-10-19T09:39:36;89.23;;;57.80;;
60038;SDS011;45916;52.734;6.544;2023-10-19T09:42:02;89.68;;;58.72;;
60038;SDS011;45916;52.734;6.544;2023-10-19T09:44:53;94.30;;;60.72;;
60038;SDS011;45916;52.734;6.544;2023-10-19T09:47:29;94.20;;;60.38;;
60038;SDS011;45916;52.734;6.544;2023-10-19T09:50:00;94.70;;;60.20;;
60038;SDS011;45916;52.734;6.544;2023-10-19T09:52:31;89.70;;;59.00;;
60038;SDS011;45916;52.734;6.544;2023-10-19T09:54:59;92.80;;;62.10;;
60038;SDS011;45916;52.734;6.544;2023-10-19T09:57:34;96.85;;;60.95;;
60038;SDS011;45916;52.734;6.544;2023-10-19T10:00:03;90.70;;;57.53;;
60038;SDS011;45916;52.734;6.544;2023-10-19T10:02:53;88.40;;;59.63;;
60038;SDS011;45916;52.734;6.544;2023-10-19T10:06:05;77.25;;;54.38;;
60038;SDS011;45916;52.734;6.544;2023-10-19T10:10:48;78.63;;;52.88;;
60038;SDS011;45916;52.734;6.544;2023-10-19T10:15:49;86.75;;;57.67;;
60038;SDS011;45916;52.734;6.544;2023-10-19T10:18:16;75.80;;;51.13;;
60038;SDS011;45916;52.734;6.544;2023-10-19T10:20:43;76.88;;;52.60;;
60038;SDS011;45916;52.734;6.544;2023-10-19T10:23:16;77.90;;;54.25;;
60038;SDS011;45916;52.734;6.544;2023-10-19T10:25:45;75.40;;;53.00;;
60038;SDS011;45916;52.734;6.544;2023-10-19T10:28:14;75.35;;;53.17;;
60038;SDS011;45916;52.734;6.544;2023-10-19T10:33:39;72.63;;;52.78;;
60038;SDS011;45916;52.734;6.544;2023-10-19T10:36:06;69.75;;;49.92;;
60038;SDS011;45916;52.734;6.544;2023-10-19T10:38:35;75.28;;;51.05;;
60038;SDS011;45916;52.734;6.544;2023-10-19T10:41:01;70.20;;;50.17;;
60038;SDS011;45916;52.734;6.544;2023-10-19T10:43:27;70.32;;;50.33;;
60038;SDS011;45916;52.734;6.544;2023-10-19T10:46:02;65.80;;;47.65;;
60038;SDS011;45916;52.734;6.544;2023-10-19T10:48:32;68.88;;;50.60;;
60038;SDS011;45916;52.734;6.544;2023-10-19T10:50:58;68.82;;;48.78;;
60038;SDS011;45916;52.734;6.544;2023-10-19T10:53:24;69.00;;;49.13;;
60038;SDS011;45916;52.734;6.544;2023-10-19T10:58:18;66.20;;;48.38;;
60038;SDS011;45916;52.734;6.544;2023-10-19T11:00:45;70.00;;;50.00;;
60038;SDS011;45916;52.734;6.544;2023-10-19T11:03:17;74.63;;;51.05;;
60038;SDS011;45916;52.734;6.544;2023-10-19T11:05:43;71.55;;;51.17;;
60038;SDS011;45916;52.734;6.544;2023-10-19T11:08:11;74.88;;;49.63;;
60038;SDS011;45916;52.734;6.544;2023-10-19T11:10:46;69.95;;;50.25;;
60038;SDS011;45916;52.734;6.544;2023-10-19T11:13:13;69.72;;;47.40;;
60038;SDS011;45916;52.734;6.544;2023-10-19T11:15:58;66.87;;;49.70;;
60038;SDS011;45916;52.734;6.544;2023-10-19T11:20:56;59.35;;;44.90;;
60038;SDS011;45916;52.734;6.544;2023-10-19T11:26:02;62.58;;;44.38;;
60038;SDS011;45916;52.734;6.544;2023-10-19T11:28:30;59.57;;;44.53;;
60038;SDS011;45916;52.734;6.544;2023-10-19T11:31:10;64.43;;;45.50;;
60038;SDS011;45916;52.734;6.544;2023-10-19T11:33:43;63.88;;;44.25;;
60038;SDS011;45916;52.734;6.544;2023-10-19T11:36:10;56.83;;;43.80;;
60038;SDS011;45916;52.734;6.544;2023-10-19T11:38:38;57.23;;;43.77;;
60038;SDS011;45916;52.734;6.544;2023-10-19T11:41:14;53.67;;;40.70;;
60038;SDS011;45916;52.734;6.544;2023-10-19T11:43:41;50.53;;;40.85;;
60038;SDS011;45916;52.734;6.544;2023-10-19T11:46:08;50.75;;;41.53;;
60038;SDS011;45916;52.734;6.544;2023-10-19T11:48:35;49.38;;;41.20;;
60038;SDS011;45916;52.734;6.544;2023-10-19T11:51:02;53.78;;;42.60;;
60038;SDS011;45916;52.734;6.544;2023-10-19T11:53:32;47.45;;;39.80;;
60038;SDS011;45916;52.734;6.544;2023-10-19T11:56:02;45.47;;;38.40;;
60038;SDS011;45916;52.734;6.544;2023-10-19T11:58:31;47.90;;;38.90;;
60038;SDS011;45916;52.734;6.544;2023-10-19T12:01:00;44.47;;;38.03;;
60038;SDS011;45916;52.734;6.544;2023-10-19T12:03:30;45.65;;;36.40;;
60038;SDS011;45916;52.734;6.544;2023-10-19T12:05:56;48.78;;;39.17;;
60038;SDS011;45916;52.734;6.544;2023-10-19T12:08:22;47.53;;;39.65;;
60038;SDS011;45916;52.734;6.544;2023-10-19T12:10:48;49.72;;;41.10;;
60038;SDS011;45916;52.734;6.544;2023-10-19T12:13:15;51.50;;;40.65;;
60038;SDS011;45916;52.734;6.544;2023-10-19T12:15:41;51.55;;;41.13;;
60038;SDS011;45916;52.734;6.544;2023-10-19T12:18:16;50.25;;;40.15;;
60038;SDS011;45916;52.734;6.544;2023-10-19T12:20:44;50.63;;;41.20;;
60038;SDS011;45916;52.734;6.544;2023-10-19T12:23:11;53.95;;;41.58;;
60038;SDS011;45916;52.734;6.544;2023-10-19T12:25:37;53.35;;;41.78;;
60038;SDS011;45916;52.734;6.544;2023-10-19T12:28:03;50.75;;;40.92;;
60038;SDS011;45916;52.734;6.544;2023-10-19T12:30:29;48.58;;;39.67;;
60038;SDS011;45916;52.734;6.544;2023-10-19T12:33:02;47.20;;;39.20;;
60038;SDS011;45916;52.734;6.544;2023-10-19T12:35:33;48.80;;;38.95;;
60038;SDS011;45916;52.734;6.544;2023-10-19T12:38:18;46.70;;;38.38;;
60038;SDS011;45916;52.734;6.544;2023-10-19T12:40:48;48.92;;;39.17;;
60038;SDS011;45916;52.734;6.544;2023-10-19T12:43:16;47.80;;;40.53;;
60038;SDS011;45916;52.734;6.544;2023-10-19T12:45:44;51.80;;;40.13;;
60038;SDS011;45916;52.734;6.544;2023-10-19T12:48:15;54.15;;;41.40;;
60038;SDS011;45916;52.734;6.544;2023-10-19T12:50:42;56.88;;;42.35;;
60038;SDS011;45916;52.734;6.544;2023-10-19T12:53:08;52.63;;;41.88;;
60038;SDS011;45916;52.734;6.544;2023-10-19T12:55:34;56.58;;;43.22;;
60038;SDS011;45916;52.734;6.544;2023-10-19T13:00:32;58.70;;;43.35;;
60038;SDS011;45916;52.734;6.544;2023-10-19T13:03:06;57.25;;;43.63;;
60038;SDS011;45916;52.734;6.544;2023-10-19T13:05:33;54.55;;;40.92;;
60038;SDS011;45916;52.734;6.544;2023-10-19T13:08:00;54.80;;;43.03;;
60038;SDS011;45916;52.734;6.544;2023-10-19T13:10:30;54.25;;;40.92;;
60038;SDS011;45916;52.734;6.544;2023-10-19T13:13:05;57.53;;;43.67;;
60038;SDS011;45916;52.734;6.544;2023-10-19T13:15:32;58.22;;;44.92;;
60038;SDS011;45916;52.734;6.544;2023-10-19T13:18:00;58.30;;;43.72;;
60038;SDS011;45916;52.734;6.544;2023-10-19T13:20:27;57.45;;;42.75;;
60038;SDS011;45916;52.734;6.544;2023-10-19T13:22:58;53.17;;;42.17;;
60038;SDS011;45916;52.734;6.544;2023-10-19T13:25:25;59.65;;;43.20;;
60038;SDS011;45916;52.734;6.544;2023-10-19T13:28:05;57.10;;;43.05;;
60038;SDS011;45916;52.734;6.544;2023-10-19T13:30:45;54.22;;;41.45;;
60038;SDS011;45916;52.734;6.544;2023-10-19T13:33:12;56.35;;;41.80;;
60038;SDS011;45916;52.734;6.544;2023-10-19T13:35:39;52.60;;;41.92;;
60038;SDS011;45916;52.734;6.544;2023-10-19T13:38:10;53.33;;;41.13;;
60038;SDS011;45916;52.734;6.544;2023-10-19T13:40:39;56.50;;;43.45;;
60038;SDS011;45916;52.734;6.544;2023-10-19T13:43:06;61.35;;;43.80;;
60038;SDS011;45916;52.734;6.544;2023-10-19T13:45:33;50.83;;;39.92;;
60038;SDS011;45916;52.734;6.544;2023-10-19T13:48:01;54.08;;;41.42;;
60038;SDS011;45916;52.734;6.544;2023-10-19T13:50:27;58.60;;;43.15;;
60038;SDS011;45916;52.734;6.544;2023-10-19T13:52:54;49.78;;;40.05;;
60038;SDS011;45916;52.734;6.544;2023-10-19T13:55:25;54.15;;;41.83;;
60038;SDS011;45916;52.734;6.544;2023-10-19T13:57:51;53.58;;;40.00;;
60038;SDS011;45916;52.734;6.544;2023-10-19T14:00:17;55.05;;;40.38;;
60038;SDS011;45916;52.734;6.544;2023-10-19T14:03:00;58.15;;;43.05;;
60038;SDS011;45916;52.734;6.544;2023-10-19T14:05:28;58.25;;;43.60;;
60038;SDS011;45916;52.734;6.544;2023-10-19T14:07:54;53.28;;;40.40;;
60038;SDS011;45916;52.734;6.544;2023-10-19T14:10:20;58.33;;;44.22;;
60038;SDS011;45916;52.734;6.544;2023-10-19T14:12:47;57.83;;;42.97;;
60038;SDS011;45916;52.734;6.544;2023-10-19T14:15:17;62.90;;;43.20;;
60038;SDS011;45916;52.734;6.544;2023-10-19T14:17:44;64.70;;;47.15;;
60038;SDS011;45916;52.734;6.544;2023-10-19T14:20:12;64.20;;;43.38;;
60038;SDS011;45916;52.734;6.544;2023-10-19T14:22:46;64.63;;;45.97;;
60038;SDS011;45916;52.734;6.544;2023-10-19T14:25:14;63.95;;;47.20;;
60038;SDS011;45916;52.734;6.544;2023-10-19T14:27:40;63.33;;;46.20;;
60038;SDS011;45916;52.734;6.544;2023-10-19T14:30:11;62.35;;;45.60;;
60038;SDS011;45916;52.734;6.544;2023-10-19T14:32:41;65.55;;;49.03;;
60038;SDS011;45916;52.734;6.544;2023-10-19T14:35:08;66.50;;;48.53;;
60038;SDS011;45916;52.734;6.544;2023-10-19T14:37:39;61.13;;;44.17;;
60038;SDS011;45916;52.734;6.544;2023-10-19T14:40:14;63.67;;;45.00;;
60038;SDS011;45916;52.734;6.544;2023-10-19T14:42:42;64.55;;;43.90;;
60038;SDS011;45916;52.734;6.544;2023-10-19T14:45:09;54.88;;;42.10;;
60038;SDS011;45916;52.734;6.544;2023-10-19T14:47:37;58.00;;;45.45;;
60038;SDS011;45916;52.734;6.544;2023-10-19T14:50:06;60.40;;;45.00;;
60038;SDS011;45916;52.734;6.544;2023-10-19T14:52:34;53.08;;;41.38;;
60038;SDS011;45916;52.734;6.544;2023-10-19T14:54:59;58.83;;;42.97;;
60038;SDS011;45916;52.734;6.544;2023-10-19T14:57:25;56.85;;;42.83;;
60038;SDS011;45916;52.734;6.544;2023-10-19T14:59:52;57.08;;;42.38;;
60038;SDS011;45916;52.734;6.544;2023-10-19T15:02:18;59.17;;;44.58;;